Flight Track Log - Related Links

Times and Time Zones

All times are in EDT time to prevent confusion due to time zone crossing. See the JBU578 flight status page for this flight to view local times or setup timezone preferences in your user account.

Time Position Orientation Groundspeed Altitude Reporting Facility
EDT Latitude Longitude Course Direction KTS MPH feet Rate Location/Type
Thu 06:54:49 PM 37.6500 -122.3667 135° Southeast 163 188 1,100  Level Northern Cal TRACON
Thu 06:55:49 PM 37.6833 -122.3833 338° Northwest 197 227 3,100 1,438 Climbing Northern Cal TRACON
Thu 06:56:50 PM 37.6667 -122.4500 252° West 282 325 4,000 1,700 Climbing Northern Cal TRACON
Thu 06:57:00 PM 37.4328 -122.3651 113° Southeast  Level FlightAware Approximate
Thu 06:57:49 PM 37.6000 -122.4333 169° South 304 350 6,500  Level Northern Cal TRACON
Thu 06:58:00 PM 37.3577 -122.2359 136° Southeast  Level FlightAware Approximate
Thu 06:58:50 PM 37.5167 -122.3667 148° Southeast 313 360 8,900  Level Northern Cal TRACON
Thu 06:59:00 PM 37.2711 -122.1171 133° Southeast  Level FlightAware Approximate
Thu 07:00:00 PM 37.1825 -122.0031 135° Southeast  Level FlightAware Approximate
Thu 07:00:50 PM 37.4667 -122.1500 106° East 363 418 11,600  Level Northern Cal TRACON
Thu 07:03:09 PM 37.3978 -121.8756 107° East 372 428 15,300 1,590 Climbing Los Angeles Center
Thu 07:04:10 PM 37.3658 -121.7383 106° East 387 445 16,900 1,574 Climbing Los Angeles Center
Thu 07:05:11 PM 37.3314 -121.6064 108° East 396 456 18,500 1,610 Climbing Los Angeles Center
Thu 07:06:13 PM 37.2981 -121.4633 106° East 412 474 20,200 1,385 Climbing Los Angeles Center
Thu 07:07:21 PM 37.2606 -121.2922 105° East 422 486 21,500 1,172 Climbing Oakland Center
Thu 07:08:21 PM 37.2244 -121.1489 108° East 428 493 22,700 1,190 Climbing Oakland Center
Thu 07:09:22 PM 37.1872 -121.0036 108° East 433 498 23,900 1,033 Climbing Oakland Center
Thu 07:10:23 PM 37.1422 -120.8569 111° Southeast 446 513 24,800 984 Climbing Oakland Center
Thu 07:11:24 PM 37.1036 -120.6700 104° East 456 525 25,900 1,033 Climbing Oakland Center
Thu 07:12:25 PM 37.0675 -120.5167 106° East 459 528 26,900 885 Climbing Oakland Center
Thu 07:13:26 PM 37.0275 -120.3631 108° East 464 534 27,700 787 Climbing Oakland Center
Thu 07:14:27 PM 36.9867 -120.2078 108° East 469 540 28,500 992 Climbing Oakland Center
Thu 07:15:27 PM 36.9397 -120.0467 110° East 467 537 29,700 1,041 Climbing Oakland Center
Thu 07:16:28 PM 36.8908 -119.8972 112° Southeast 464 534 30,600 639 Climbing Oakland Center
Thu 07:17:29 PM 36.8425 -119.7481 112° Southeast 462 532 31,000 344 Climbing Oakland Center
Thu 07:18:30 PM 36.7917 -119.6022 113° Southeast 459 528 31,300 639 Climbing Oakland Center
Thu 07:19:31 PM 36.7372 -119.4592 115° Southeast 456 525 32,300 885 Climbing Oakland Center
Thu 07:20:32 PM 36.6906 -119.3092 111° Southeast 468 539 33,100 885 Climbing Oakland Center
Thu 07:21:33 PM 36.6803 -119.1525 95° East 459 528 34,100 836 Climbing Oakland Center
Thu 07:22:34 PM 36.6675 -118.9917 96° East 464 534 34,800 443 Climbing Oakland Center
Thu 07:23:35 PM 36.6553 -118.8331 95° East 462 532 35,000 49 Climbing Oakland Center
Thu 07:24:36 PM 36.6456 -118.6778 94° East 455 524 34,900 -50 Descending Oakland Center
Thu 07:25:36 PM 36.6358 -118.5211 94° East 454 522 34,900 50 Level Oakland Center
Thu 07:26:37 PM 36.6256 -118.3669 95° East 459 528 35,000 48 Climbing Oakland Center
Thu 07:27:40 PM 36.6003 -118.1808 100° East 464 534 35,000  Level Los Angeles Center
Thu 07:28:42 PM 36.5700 -118.0244 104° East 455 524 35,000  Level Los Angeles Center
Thu 07:29:43 PM 36.5417 -117.8725 103° East 458 527 35,000  Level Los Angeles Center
Thu 07:30:44 PM 36.5114 -117.7192 104° East 459 528 35,000  Level Los Angeles Center
Thu 07:31:46 PM 36.4825 -117.5642 103° East 460 529 35,000  Level Los Angeles Center
Thu 07:32:47 PM 36.4575 -117.4389 104° East 464 534 35,000  Level Los Angeles Center
Thu 07:33:48 PM 36.4192 -117.2447 104° East 474 545 35,000  Level Los Angeles Center
Thu 07:34:49 PM 36.3886 -117.0825 103° East 480 552 35,000 -49 Level Los Angeles Center
Thu 07:35:51 PM 36.3567 -116.9222 104° East 480 552 34,900 -49 Descending Los Angeles Center
Thu 07:36:52 PM 36.3192 -116.7372 104° East 471 542 34,900 49 Level Los Angeles Center
Thu 07:37:53 PM 36.2875 -116.5794 104° East 470 541 35,000 49 Climbing Los Angeles Center
Thu 07:38:55 PM 36.2558 -116.4208 104° East 472 543 35,000 -49 Level Los Angeles Center
Thu 07:39:56 PM 36.2222 -116.2619 105° East 474 545 34,900  Descending Los Angeles Center
Thu 07:40:57 PM 36.1897 -116.1067 104° East 473 544 35,000 49 Climbing Los Angeles Center
Thu 07:41:58 PM 36.1561 -115.9475 105° East 476 548 35,000  Level Los Angeles Center
Thu 07:43:00 PM 36.1189 -115.7706 105° East 473 544 35,000  Level Los Angeles Center
Thu 07:44:01 PM 36.0864 -115.6153 104° East 475 547 35,000  Level Los Angeles Center
Thu 07:45:02 PM 36.0522 -115.4614 105° East 473 544 35,000  Level Los Angeles Center
Thu 07:46:03 PM 36.0194 -115.3044 104° East 476 548 35,000  Level Los Angeles Center
Thu 07:47:05 PM 35.9844 -115.1464 105° East 480 552 35,000  Level Los Angeles Center
Thu 07:48:06 PM 35.9503 -114.9908 105° East 475 547 35,000  Level Los Angeles Center
Thu 07:49:07 PM 35.9092 -114.8036 105° East 474 545 35,000  Level Los Angeles Center
Thu 07:50:08 PM 35.8750 -114.6475 105° East 472 543 35,000  Level Los Angeles Center
Thu 07:51:10 PM 35.8394 -114.4914 106° East 473 544 35,000  Level Los Angeles Center
Thu 07:52:11 PM 35.8050 -114.3336 105° East 477 549 35,000  Level Los Angeles Center
Thu 07:53:12 PM 35.7692 -114.1764 106° East 477 549 35,000  Level Los Angeles Center
Thu 07:54:14 PM 35.7339 -114.0197 105° East 475 547 35,000  Level Los Angeles Center
Thu 07:55:15 PM 35.6944 -113.8481 106° East 477 549 35,000  Level Los Angeles Center
Thu 07:56:16 PM 35.6583 -113.6917 106° East 478 550 35,000  Level Los Angeles Center
Thu 07:57:18 PM 35.6228 -113.5350 106° East 478 550 35,000  Level Los Angeles Center
Thu 07:58:19 PM 35.5842 -113.3803 107° East 477 549 35,000  Level Los Angeles Center
Thu 07:59:21 PM 35.5375 -113.2056 108° East 479 551 35,000  Level Los Angeles Center
Thu 08:00:22 PM 35.4839 -113.0561 114° Southeast 480 552 35,000  Level Los Angeles Center
Thu 08:01:24 PM 35.4297 -112.8950 112° Southeast 486 559 35,000  Level Los Angeles Center
Thu 08:02:25 PM 35.3744 -112.7475 115° Southeast 479 551 35,000  Level Los Angeles Center
Thu 08:03:26 PM 35.3281 -112.6122 113° Southeast 483 556 35,000  Level Los Angeles Center
Thu 08:04:28 PM 35.2756 -112.4639 113° Southeast 482 555 35,000  Level Los Angeles Center
Thu 08:05:29 PM 35.2128 -112.2861 113° Southeast 478 550 35,000  Level Los Angeles Center
Thu 08:06:30 PM 35.1600 -112.1378 113° Southeast 477 549 35,000  Level Los Angeles Center
Thu 08:07:32 PM 35.1061 -111.9900 114° Southeast 479 551 35,000  Level Los Angeles Center
Thu 08:08:33 PM 35.0553 -111.8519 114° Southeast 481 554 35,000  Level Los Angeles Center
Thu 08:09:34 PM 35.0003 -111.7017 114° Southeast 482 555 35,000 -40 Level Los Angeles Center
Thu 08:11:02 PM 34.9169 -111.4689 114° Southeast 470 541 34,900  Descending Albuquerque Center
Thu 08:12:03 PM 34.8622 -111.3208 114° Southeast 474 545 35,000 49 Climbing Albuquerque Center
Thu 08:13:04 PM 34.8056 -111.1700 115° Southeast 484 557 35,000  Level Albuquerque Center
Thu 08:14:05 PM 34.7508 -111.0203 114° Southeast 484 557 35,000 -49 Level Albuquerque Center
Thu 08:15:06 PM 34.6967 -110.8739 114° Southeast 481 554 34,900  Descending Albuquerque Center
Thu 08:16:07 PM 34.6389 -110.7164 114° Southeast 474 545 35,000 49 Climbing Albuquerque Center
Thu 08:17:08 PM 34.5878 -110.5772 114° Southeast 472 543 35,000  Level Albuquerque Center
Thu 08:18:09 PM 34.5342 -110.4361 115° Southeast 477 549 35,000  Level Albuquerque Center
Thu 08:19:10 PM 34.4731 -110.2725 114° Southeast 478 550 35,000 -49 Level Albuquerque Center
Thu 08:20:11 PM 34.4194 -110.1333 115° Southeast 477 549 34,900  Descending Albuquerque Center
Thu 08:21:12 PM 34.3892 -109.9597 102° East 481 554 35,000 49 Climbing Albuquerque Center
Thu 08:22:13 PM 34.4047 -109.8092 83° East 474 545 35,000  Level Albuquerque Center
Thu 08:23:14 PM 34.4194 -109.6597 83° East 468 539 35,000  Level Albuquerque Center
Thu 08:24:15 PM 34.4381 -109.4858 83° East 467 537 35,000  Level Albuquerque Center
Thu 08:25:16 PM 34.4536 -109.3331 83° East 473 544 35,000  Level Albuquerque Center
Thu 08:26:17 PM 34.4683 -109.1803 83° East 477 549 35,000  Level Albuquerque Center
Thu 08:27:18 PM 34.4800 -109.0044 85° East 473 544 35,000  Level Albuquerque Center
Thu 08:28:19 PM 34.4619 -108.8539 98° East 481 554 35,000  Level Albuquerque Center
Thu 08:29:20 PM 34.4097 -108.7108 114° Southeast 487 560 35,000  Level Albuquerque Center
Thu 08:30:20 PM 34.3458 -108.5433 115° Southeast 490 564 35,000 -50 Level Albuquerque Center
Thu 08:31:21 PM 34.2869 -108.3889 115° Southeast 494 568 34,900 -49 Descending Albuquerque Center
Thu 08:32:22 PM 34.2297 -108.2417 115° Southeast 490 564 34,900  Level Albuquerque Center
Thu 08:33:23 PM 34.1800 -108.1097 114° Southeast 488 562 34,900 49 Level Albuquerque Center
Thu 08:34:24 PM 34.1219 -107.9597 115° Southeast 491 565 35,000  Climbing Albuquerque Center
Thu 08:35:25 PM 34.0639 -107.8094 115° Southeast 493 567 34,900 -50 Descending Albuquerque Center
Thu 08:36:25 PM 34.0069 -107.6592 115° Southeast 493 567 34,900  Level Albuquerque Center
Thu 08:37:26 PM 33.9364 -107.4797 115° Southeast 493 567 34,900  Level Albuquerque Center
Thu 08:38:27 PM 33.8781 -107.3289 115° Southeast 495 570 34,900  Level Albuquerque Center
Thu 08:39:28 PM 33.8181 -107.1781 116° Southeast 498 573 34,900  Level Albuquerque Center
Thu 08:40:28 PM 33.7594 -107.0272 115° Southeast 498 573 34,900  Level Albuquerque Center
Thu 08:41:29 PM 33.6994 -106.8750 115° Southeast 500 575 34,900  Level Albuquerque Center
Thu 08:42:30 PM 33.6394 -106.7239 115° Southeast 501 577 34,900  Level Albuquerque Center
Thu 08:43:31 PM 33.5781 -106.5722 116° Southeast 502 578 34,900  Level Albuquerque Center
Thu 08:44:31 PM 33.5178 -106.4211 116° Southeast 502 578 34,900  Level Albuquerque Center
Thu 08:45:32 PM 33.4561 -106.2689 116° Southeast 505 581 34,900  Level Albuquerque Center
Thu 08:46:33 PM 33.3956 -106.1189 116° Southeast 502 578 34,900  Level Albuquerque Center
Thu 08:47:33 PM 33.3347 -105.9689 116° Southeast 500 575 34,900  Level Albuquerque Center
Thu 08:48:34 PM 33.2736 -105.8178 116° Southeast 503 579 34,900  Level Albuquerque Center
Thu 08:49:35 PM 33.2108 -105.6667 116° Southeast 506 582 34,900  Level Albuquerque Center
Thu 08:50:36 PM 33.1431 -105.5025 116° Southeast 502 578 34,900 50 Level Albuquerque Center
Thu 08:51:36 PM 33.0817 -105.3556 116° Southeast 498 573 35,000 50 Climbing Albuquerque Center
Thu 08:52:37 PM 33.0192 -105.2072 117° Southeast 501 577 35,000  Level Albuquerque Center
Thu 08:53:38 PM 32.9531 -105.0483 116° Southeast 501 577 35,000  Level Albuquerque Center
Thu 08:54:38 PM 32.8919 -104.9022 116° Southeast 498 573 35,000  Level Albuquerque Center
Thu 08:55:39 PM 32.8308 -104.7553 116° Southeast 499 574 35,000  Level Albuquerque Center
Thu 08:56:40 PM 32.7689 -104.6078 117° Southeast 499 574 35,000  Level Albuquerque Center
Thu 08:57:41 PM 32.7069 -104.4617 117° Southeast 498 573 35,000 -50 Level Albuquerque Center
Thu 08:58:41 PM 32.6411 -104.3064 117° Southeast 493 567 34,900  Descending Albuquerque Center
Thu 08:59:42 PM 32.5794 -104.1611 117° Southeast 495 570 35,000 49 Climbing Albuquerque Center
Thu 09:00:43 PM 32.5247 -104.0339 117° Southeast 492 566 35,000  Level Albuquerque Center
Thu 09:01:44 PM 32.4664 -103.8911 116° Southeast 485 558 35,000  Level Albuquerque Center
Thu 09:02:44 PM 32.4014 -103.7481 118° Southeast 492 566 35,000 -50 Level Albuquerque Center
Thu 09:03:45 PM 32.3397 -103.6050 117° Southeast 490 564 34,900  Descending Albuquerque Center
Thu 09:04:46 PM 32.2778 -103.4622 117° Southeast 491 565 35,000 49 Climbing Albuquerque Center
Thu 09:05:47 PM 32.2136 -103.3197 118° Southeast 492 566 35,000  Level Albuquerque Center
Thu 09:06:47 PM 32.1389 -103.1497 117° Southeast 491 565 35,000 -56 Level Albuquerque Center
Thu 09:07:34 PM 32.0908 -103.0528 120° Southeast 491 565 34,900 -56 Descending Fort Worth Center
Thu 09:08:34 PM 32.0303 -102.9094 116° Southeast 496 571 34,900  Level Fort Worth Center
Thu 09:09:34 PM 31.9675 -102.7708 118° Southeast 488 562 34,900  Level Fort Worth Center
Thu 09:10:34 PM 31.9047 -102.6278 117° Southeast 488 562 34,900  Level Fort Worth Center
Thu 09:11:34 PM 31.8436 -102.4875 117° Southeast 488 562 34,900  Level Fort Worth Center
Thu 09:13:36 PM 31.7144 -102.2006 118° Southeast 474 545 34,900  Level Houston Center
Thu 09:14:36 PM 31.6508 -102.0578 118° Southeast 482 555 34,900  Level Houston Center
Thu 09:15:37 PM 31.5869 -101.9169 118° Southeast 483 556 34,900  Level Houston Center
Thu 09:16:38 PM 31.5222 -101.7775 119° Southeast 484 557 34,900  Level Houston Center
Thu 09:17:39 PM 31.4569 -101.6375 119° Southeast 484 557 34,900  Level Houston Center
Thu 09:18:39 PM 31.3919 -101.4992 119° Southeast 484 557 34,900  Level Houston Center
Thu 09:19:40 PM 31.3275 -101.3589 118° Southeast 486 559 34,900  Level Houston Center
Thu 09:20:41 PM 31.2647 -101.2197 118° Southeast 485 558 34,900  Level Houston Center
Thu 09:21:41 PM 31.2403 -101.0683 101° East 477 549 34,900  Level Houston Center
Thu 09:22:42 PM 31.2178 -100.9106 99° East 484 557 34,900  Level Houston Center
Thu 09:23:43 PM 31.1950 -100.7569 100° East 481 554 34,900  Level Houston Center
Thu 09:24:43 PM 31.1728 -100.6056 100° East 474 545 34,900  Level Houston Center
Thu 09:25:44 PM 31.1506 -100.4525 100° East 476 548 34,900  Level Houston Center
Thu 09:26:45 PM 31.1281 -100.2972 100° East 483 556 34,900 50 Level Houston Center
Thu 09:27:45 PM 31.1053 -100.1397 100° East 490 564 35,000 50 Climbing Houston Center
Thu 09:28:46 PM 31.0822 -99.9839 100° East 489 563 35,000 -49 Level Houston Center
Thu 09:29:47 PM 31.0575 -99.8244 100° East 494 568 34,900 -50 Descending Houston Center
Thu 09:30:47 PM 31.0342 -99.6656 100° East 494 568 34,900  Level Houston Center
Thu 09:31:48 PM 31.0089 -99.5064 100° East 497 572 34,900  Level Houston Center
Thu 09:32:48 PM 30.9828 -99.3436 101° East 508 585 34,900  Level Houston Center
Thu 09:33:49 PM 30.9519 -99.1489 100° East 508 585 34,900  Level Houston Center
Thu 09:34:50 PM 30.9283 -99.0000 100° East 508 585 34,900  Level Houston Center
Thu 09:35:50 PM 30.9022 -98.8369 101° East 508 585 34,900 50 Level Houston Center
Thu 09:36:51 PM 30.8750 -98.6722 101° East 515 593 35,000 49 Climbing Houston Center
Thu 09:37:52 PM 30.8472 -98.5047 101° East 521 600 35,000  Level Houston Center
Thu 09:38:52 PM 30.8197 -98.3367 101° East 524 603 35,000  Level Houston Center
Thu 09:39:53 PM 30.7922 -98.1692 101° East 524 603 35,000  Level Houston Center
Thu 09:40:53 PM 30.7636 -98.0028 101° East 522 601 35,000 -50 Level Houston Center
Thu 09:41:54 PM 30.7356 -97.8364 101° East 523 602 34,900  Descending Houston Center
Thu 09:42:55 PM 30.7067 -97.6689 101° East 527 606 35,000 50 Climbing Houston Center
Thu 09:43:55 PM 30.6778 -97.5008 101° East 529 609 35,000  Level Houston Center
Thu 09:44:56 PM 30.6486 -97.3336 101° East 530 610 35,000  Level Houston Center
Thu 09:45:56 PM 30.6203 -97.1656 101° East 532 612 35,000  Level Houston Center
Thu 09:46:57 PM 30.5911 -96.9983 101° East 529 609 35,000  Level Houston Center
Thu 09:47:58 PM 30.5614 -96.8297 102° East 531 611 35,000  Level Houston Center
Thu 09:48:58 PM 30.5306 -96.6625 102° East 529 609 35,000  Level Houston Center
Thu 09:49:59 PM 30.5017 -96.4919 101° East 532 612 35,000  Level Houston Center
Thu 09:51:00 PM 30.4717 -96.3247 102° East 527 606 35,000 -50 Level Houston Center
Thu 09:52:00 PM 30.4408 -96.1594 102° East 523 602 34,900 -50 Descending Houston Center
Thu 09:53:01 PM 30.4097 -96.0047 103° East 515 593 34,900 50 Level Houston Center
Thu 09:54:01 PM 30.3819 -95.8411 101° East 516 594 35,000 50 Climbing Houston Center
Thu 09:55:02 PM 30.3444 -95.6422 102° East 523 602 35,000  Level Houston Center
Thu 09:56:03 PM 30.3122 -95.4772 103° East 524 603 35,000  Level Houston Center
Thu 09:57:03 PM 30.2756 -95.3128 104° East 524 603 35,000  Level Houston Center
Thu 09:58:04 PM 30.2403 -95.1497 104° East 521 600 35,000  Level Houston Center
Thu 09:59:04 PM 30.2050 -94.9858 104° East 522 601 35,000 -50 Level Houston Center
Thu 10:00:05 PM 30.1678 -94.8219 105° East 524 603 34,900  Descending Houston Center
Thu 10:01:06 PM 30.1319 -94.6594 104° East 520 598 35,000 50 Climbing Houston Center
Thu 10:02:06 PM 30.0953 -94.4983 105° East 518 596 35,000 -50 Level Houston Center
Thu 10:03:07 PM 30.0594 -94.3400 105° East 520 598 34,900 -50 Descending Houston Center
Thu 10:04:07 PM 30.0236 -94.1792 104° East 521 600 34,900  Level Houston Center
Thu 10:05:08 PM 29.9861 -94.0181 105° East 523 602 34,900  Level Houston Center
Thu 10:06:09 PM 29.9494 -93.8583 105° East 521 600 34,900  Level Houston Center
Thu 10:07:09 PM 29.9119 -93.6983 105° East 524 603 34,900  Level Houston Center
Thu 10:08:10 PM 29.8739 -93.5378 105° East 524 603 34,900  Level Houston Center
Thu 10:09:10 PM 29.8356 -93.3769 105° East 524 603 34,900  Level Houston Center
Thu 10:10:11 PM 29.7978 -93.2158 105° East 525 604 34,900  Level Houston Center
Thu 10:11:11 PM 29.7614 -93.0567 105° East 520 598 34,900  Level Houston Center
Thu 10:12:12 PM 29.7153 -92.8644 105° East 521 600 34,900  Level Houston Center
Thu 10:13:12 PM 29.6775 -92.7061 105° East 518 596 34,900 50 Level Houston Center
Thu 10:14:13 PM 29.6383 -92.5467 106° East 518 596 35,000  Climbing Houston Center
Thu 10:15:13 PM 29.6008 -92.3883 105° East 515 593 34,900 -50 Descending Houston Center
Thu 10:16:14 PM 29.5625 -92.2322 106° East 510 587 34,900  Level Houston Center
Thu 10:17:14 PM 29.5233 -92.0750 106° East 514 592 34,900  Level Houston Center
Thu 10:18:15 PM 29.4847 -91.9200 106° East 508 585 34,900 50 Level Houston Center
Thu 10:19:15 PM 29.4464 -91.7617 106° East 514 592 35,000  Climbing Houston Center
Thu 10:20:16 PM 29.4100 -91.6150 106° East 506 582 34,900  Descending Houston Center
Thu 10:21:16 PM 29.3703 -91.4564 106° East 510 587 35,000  Climbing Houston Center
Thu 10:22:17 PM 29.3311 -91.3033 106° East 510 587 34,900  Descending Houston Center
Thu 10:23:17 PM 29.2908 -91.1444 106° East 512 589 35,000  Climbing Houston Center
Thu 10:24:18 PM 29.2525 -90.9925 106° East 508 585 34,900 -50 Descending Houston Center
Thu 10:25:18 PM 29.2136 -90.8406 106° East 500 575 34,900  Level Houston Center
Thu 10:26:19 PM 29.1661 -90.6581 107° East 501 577 34,900  Level Houston Center
Thu 10:27:19 PM 29.1261 -90.5050 107° East 503 579 34,900  Level Houston Center
Thu 10:28:20 PM 29.0853 -90.3508 107° East 507 583 34,900  Level Houston Center
Thu 10:29:20 PM 29.0442 -90.1947 107° East 513 590 34,900  Level Houston Center
Thu 10:30:21 PM 29.0039 -90.0411 107° East 508 585 34,900  Level Houston Center
Thu 10:31:21 PM 28.9644 -89.8894 107° East 504 580 34,900  Level Houston Center
Thu 10:32:21 PM 28.9239 -89.7364 107° East 504 580 34,900  Level Houston Center
Thu 10:33:22 PM 28.8833 -89.5850 107° East 503 579 34,900  Level Houston Center
Thu 10:34:22 PM 28.8425 -89.4325 107° East 504 580 34,900  Level Houston Center
Thu 10:35:23 PM 28.8014 -89.2819 107° East 498 573 34,900  Level Houston Center
Thu 10:36:23 PM 28.7617 -89.1333 107° East 493 567 34,900  Level Houston Center
Thu 10:37:24 PM 28.7211 -88.9850 107° East 491 565 34,900  Level Houston Center
Thu 10:38:24 PM 28.6808 -88.8367 107° East 492 566 34,900  Level Houston Center
Thu 10:39:25 PM 28.6400 -88.6886 107° East 492 566 34,900  Level Houston Center
Thu 10:40:25 PM 28.5997 -88.5431 107° East 485 558 34,900  Level Houston Center
Thu 10:41:25 PM 28.5589 -88.3956 107° East 488 562 34,900  Level Houston Center
Thu 10:42:26 PM 28.5189 -88.2503 107° East 483 556 34,900 50 Level Houston Center
Thu 10:43:26 PM 28.4747 -88.0953 108° East 484 557 35,000  Climbing Houston Center
Thu 10:44:27 PM 28.4325 -87.9453 108° East 485 558 34,900 -50 Descending Houston Center
Thu 10:45:27 PM 28.3922 -87.8014 108° East 482 555 34,900 50 Level Houston Center
Thu 10:46:27 PM 28.3514 -87.6589 108° East 476 548 35,000  Climbing Houston Center
Thu 10:47:28 PM 28.3111 -87.5175 108° East 473 544 34,900 -50 Descending Houston Center
Thu 10:48:28 PM 28.2708 -87.3744 108° East 477 549 34,900 50 Level Houston Center
Thu 10:49:29 PM 28.2292 -87.2319 108° East 478 550 35,000 50 Climbing Houston Center
Thu 10:50:29 PM 28.1878 -87.0875 108° East 482 555 35,000 -51 Level Houston Center
Thu 10:51:27 PM 28.1506 -86.9528 107° East 474 545 34,900 -51 Descending Jacksonville Center
Thu 10:52:27 PM 28.1072 -86.8075 109° East 474 545 34,900  Level Jacksonville Center
Thu 10:53:27 PM 28.0633 -86.6647 109° East 481 554 34,900  Level Jacksonville Center
Thu 10:54:27 PM 28.0197 -86.5150 108° East 477 549 34,900  Level Jacksonville Center
Thu 10:55:27 PM 27.9778 -86.3750 109° East 477 549 34,900  Level Jacksonville Center
Thu 10:56:27 PM 27.9356 -86.2350 109° East 482 555 34,900  Level Jacksonville Center
Thu 10:57:27 PM 27.8911 -86.0881 109° East 482 555 34,900  Level Jacksonville Center
Thu 10:59:53 PM 27.7828 -85.7261 109° East 479 551 34,900  Level Miami Center
Thu 11:00:54 PM 27.7436 -85.5825 107° East 480 552 34,900  Level Miami Center
Thu 11:01:53 PM 27.7003 -85.4389 109° East 475 547 34,900  Level Miami Center
Thu 11:02:52 PM 27.6586 -85.3000 109° East 474 545 34,900  Level Miami Center
Thu 11:03:52 PM 27.6042 -85.1603 114° Southeast 504 580 34,900 50 Level Miami Center
Thu 11:04:52 PM 27.5600 -85.0192 109° East 492 566 35,000  Climbing Miami Center
Thu 11:05:52 PM 27.5200 -84.8783 108° East 482 555 34,900 -49 Descending Miami Center
Thu 11:06:54 PM 27.4822 -84.7331 106° East 475 547 34,900  Level Miami Center
Thu 11:07:52 PM 27.4506 -84.5836 103° East 475 547 34,900  Level Miami Center
Thu 11:08:52 PM 27.4294 -84.4350 99° East 475 547 34,900  Level Miami Center
Thu 11:09:53 PM 27.4017 -84.2861 102° East 480 552 34,900  Level Miami Center
Thu 11:10:53 PM 27.3781 -84.1350 100° East 480 552 34,900  Level Miami Center
Thu 11:11:54 PM 27.3458 -83.9858 104° East 485 558 34,900  Level Miami Center
Thu 11:12:54 PM 27.3219 -83.8372 100° East 485 558 34,900  Level Miami Center
Thu 11:13:52 PM 27.2892 -83.6906 104° East 485 558 34,900  Level Miami Center
Thu 11:14:53 PM 27.2394 -83.5500 112° Southeast 485 558 34,900  Level Miami Center
Thu 11:15:54 PM 27.1878 -83.4072 112° Southeast 485 558 34,900  Level Miami Center
Thu 11:16:52 PM 27.1397 -83.2669 111° Southeast 485 558 34,900  Level Miami Center
Thu 11:17:52 PM 27.0897 -83.1242 111° Southeast 485 558 34,900  Level Miami Center
Thu 11:18:53 PM 27.0394 -82.9842 112° Southeast 485 558 34,900  Level Miami Center
Thu 11:19:53 PM 26.9892 -82.8394 111° Southeast 485 558 34,900 -101 Level Miami Center
Thu 11:20:52 PM 26.9364 -82.6992 113° Southeast 485 558 34,700 -843 Descending Miami Center
Thu 11:21:54 PM 26.8875 -82.5619 112° Southeast 485 558 33,200 -1,525 Descending Miami Center
Thu 11:22:54 PM 26.8347 -82.4175 112° Southeast 485 558 31,600 -1,576 Descending Miami Center
Thu 11:23:52 PM 26.7836 -82.2778 112° Southeast 485 558 30,100 -1,563 Descending Miami Center
Thu 11:24:53 PM 26.7306 -82.1358 113° Southeast 485 558 28,500 -1,600 Descending Miami Center
Thu 11:25:52 PM 26.6789 -81.9989 113° Southeast 485 558 26,900 -1,563 Descending Miami Center
Thu 11:26:52 PM 26.6278 -81.8478 111° Southeast 490 564 25,400 -1,550 Descending Miami Center
Thu 11:27:52 PM 26.5722 -81.7039 113° Southeast 500 575 23,800 -1,587 Descending Miami Center
Thu 11:28:53 PM 26.5167 -81.5508 112° Southeast 493 567 22,200 -1,587 Descending Miami Center
Thu 11:29:53 PM 26.4725 -81.4283 112° Southeast 480 552 20,600 -1,866 Descending Miami Center
Thu 11:30:52 PM 26.4244 -81.2967 112° Southeast 474 545 18,500 -2,033 Descending Miami Center
Thu 11:31:54 PM 26.3722 -81.1603 113° Southeast 452 520 16,500 -1,983 Descending Miami Center
Thu 11:32:53 PM 26.3297 -81.0428 112° Southeast 419 482 14,500 -2,034 Descending Miami Center
Thu 11:33:52 PM 26.2847 -80.9347 115° Southeast 388 447 12,500 -1,900 Descending Miami Center
Thu 11:34:53 PM 26.2517 -80.8433 112° Southeast 358 412 10,700 -1,200 Descending Miami Center
Thu 11:35:52 PM 26.2228 -80.7567 110° East 334 384 10,100 -950 Descending Miami Center
Thu 11:36:53 PM 26.1914 -80.6792 114° Southeast 295 339 8,800 -1,377 Descending Miami Center
Thu 11:37:54 PM 26.1619 -80.6067 114° Southeast 270 311 7,300 -1,190 Descending Miami Center
Thu 11:38:54 PM 26.1364 -80.5364 112° Southeast 256 295 6,400 -1,065 Descending Miami Center
Thu 11:39:58 PM 26.1108 -80.4731 114° Southeast 167 192 5,100 -1,271 Descending Miami Center
Thu 11:40:52 PM 26.0972 -80.4333 111° Southeast 187 215 3,900 -1,200 Descending Miami Center
Thu 11:41:58 PM 26.0736 -80.3747 114° Southeast 172 198 2,700 -844 Descending Miami Center
Thu 11:43:07 PM 26.0750 -80.3169 88° East 168 193 2,000 -488 Descending Miami Center
Thu 11:44:01 PM 26.0739 -80.2686 91° East 171 197 1,700 -584 Descending Miami Center
Thu 11:45:00 PM 26.0750 -80.2244 88° East 131 151 900 -694 Descending Miami Center
Thu 11:46:02 PM 26.0739 -80.1828 92° East 132 152 300 -581 Descending Miami Center
Thu 11:48:00 PM 26.0667 -80.1500 90° East  Level FlightAware Approximate

Login

Don't have an account? Register now (free) for customized features, flight alerts, and more!